sensor_id;sensor_type;location;lat;lon;timestamp;P1;durP1;ratioP1;P2;durP2;ratioP2
62696;SDS011;48761;42.680;23.312;2022-12-11T00:01:14;46.28;;;27.48;;
62696;SDS011;48761;42.680;23.312;2022-12-11T00:03:42;46.28;;;27.23;;
62696;SDS011;48761;42.680;23.312;2022-12-11T00:06:09;45.63;;;28.13;;
62696;SDS011;48761;42.680;23.312;2022-12-11T00:08:36;47.35;;;29.13;;
62696;SDS011;48761;42.680;23.312;2022-12-11T00:11:03;50.97;;;28.23;;
62696;SDS011;48761;42.680;23.312;2022-12-11T00:13:29;43.05;;;28.60;;
62696;SDS011;48761;42.680;23.312;2022-12-11T00:15:57;44.67;;;28.45;;
62696;SDS011;48761;42.680;23.312;2022-12-11T00:18:23;44.78;;;25.80;;
62696;SDS011;48761;42.680;23.312;2022-12-11T00:20:49;38.95;;;22.23;;
62696;SDS011;48761;42.680;23.312;2022-12-11T00:23:15;42.38;;;25.90;;
62696;SDS011;48761;42.680;23.312;2022-12-11T00:25:41;42.53;;;25.00;;
62696;SDS011;48761;42.680;23.312;2022-12-11T00:28:08;38.40;;;24.48;;
62696;SDS011;48761;42.680;23.312;2022-12-11T00:30:37;43.25;;;25.77;;
62696;SDS011;48761;42.680;23.312;2022-12-11T00:33:04;41.70;;;23.30;;
62696;SDS011;48761;42.680;23.312;2022-12-11T00:35:30;40.45;;;24.13;;
62696;SDS011;48761;42.680;23.312;2022-12-11T00:37:55;41.35;;;23.90;;
62696;SDS011;48761;42.680;23.312;2022-12-11T00:40:22;40.42;;;24.02;;
62696;SDS011;48761;42.680;23.312;2022-12-11T00:42:47;39.65;;;22.75;;
62696;SDS011;48761;42.680;23.312;2022-12-11T00:45:14;38.65;;;22.23;;
62696;SDS011;48761;42.680;23.312;2022-12-11T00:47:39;38.33;;;21.20;;
62696;SDS011;48761;42.680;23.312;2022-12-11T00:50:06;34.20;;;20.77;;
62696;SDS011;48761;42.680;23.312;2022-12-11T00:52:32;33.65;;;20.77;;
62696;SDS011;48761;42.680;23.312;2022-12-11T00:54:58;32.25;;;19.58;;
62696;SDS011;48761;42.680;23.312;2022-12-11T00:57:24;33.13;;;19.25;;
62696;SDS011;48761;42.680;23.312;2022-12-11T00:59:50;27.65;;;18.48;;
62696;SDS011;48761;42.680;23.312;2022-12-11T01:02:16;29.92;;;17.67;;
62696;SDS011;48761;42.680;23.312;2022-12-11T01:04:42;30.40;;;18.38;;
62696;SDS011;48761;42.680;23.312;2022-12-11T01:07:07;32.30;;;19.23;;
62696;SDS011;48761;42.680;23.312;2022-12-11T01:09:33;30.00;;;17.73;;
62696;SDS011;48761;42.680;23.312;2022-12-11T01:11:59;28.67;;;16.90;;
62696;SDS011;48761;42.680;23.312;2022-12-11T01:14:25;25.33;;;15.70;;
62696;SDS011;48761;42.680;23.312;2022-12-11T01:16:51;24.65;;;15.50;;
62696;SDS011;48761;42.680;23.312;2022-12-11T01:19:17;27.25;;;14.80;;
62696;SDS011;48761;42.680;23.312;2022-12-11T01:21:43;23.95;;;14.38;;
62696;SDS011;48761;42.680;23.312;2022-12-11T01:24:09;23.35;;;14.38;;
62696;SDS011;48761;42.680;23.312;2022-12-11T01:26:35;27.88;;;16.20;;
62696;SDS011;48761;42.680;23.312;2022-12-11T01:29:01;27.48;;;15.68;;
62696;SDS011;48761;42.680;23.312;2022-12-11T01:31:27;31.05;;;17.13;;
62696;SDS011;48761;42.680;23.312;2022-12-11T01:33:53;29.30;;;17.00;;
62696;SDS011;48761;42.680;23.312;2022-12-11T01:36:20;21.55;;;11.45;;
62696;SDS011;48761;42.680;23.312;2022-12-11T01:38:47;21.65;;;13.27;;
62696;SDS011;48761;42.680;23.312;2022-12-11T01:41:14;21.30;;;12.43;;
62696;SDS011;48761;42.680;23.312;2022-12-11T01:46:52;21.20;;;11.70;;
62696;SDS011;48761;42.680;23.312;2022-12-11T01:49:19;20.27;;;11.23;;
62696;SDS011;48761;42.680;23.312;2022-12-11T01:51:48;20.00;;;10.95;;
62696;SDS011;48761;42.680;23.312;2022-12-11T01:54:18;15.73;;;9.55;;
62696;SDS011;48761;42.680;23.312;2022-12-11T01:56:47;19.80;;;11.73;;
62696;SDS011;48761;42.680;23.312;2022-12-11T01:59:17;23.85;;;12.43;;
62696;SDS011;48761;42.680;23.312;2022-12-11T02:01:50;16.35;;;8.25;;
62696;SDS011;48761;42.680;23.312;2022-12-11T02:04:21;17.83;;;9.15;;
62696;SDS011;48761;42.680;23.312;2022-12-11T02:06:49;19.27;;;9.35;;
62696;SDS011;48761;42.680;23.312;2022-12-11T02:09:21;10.43;;;6.30;;
62696;SDS011;48761;42.680;23.312;2022-12-11T02:12:00;14.52;;;7.55;;
62696;SDS011;48761;42.680;23.312;2022-12-11T02:17:12;6.90;;;2.97;;
62696;SDS011;48761;42.680;23.312;2022-12-11T02:19:47;3.78;;;2.45;;
62696;SDS011;48761;42.680;23.312;2022-12-11T02:25:39;2.05;;;1.30;;
62696;SDS011;48761;42.680;23.312;2022-12-11T02:28:29;3.03;;;1.35;;
62696;SDS011;48761;42.680;23.312;2022-12-11T02:33:40;3.95;;;1.60;;
62696;SDS011;48761;42.680;23.312;2022-12-11T02:36:12;4.93;;;1.90;;
62696;SDS011;48761;42.680;23.312;2022-12-11T02:38:40;4.90;;;1.95;;
62696;SDS011;48761;42.680;23.312;2022-12-11T02:41:08;6.32;;;2.00;;
62696;SDS011;48761;42.680;23.312;2022-12-11T02:43:37;2.85;;;1.40;;
62696;SDS011;48761;42.680;23.312;2022-12-11T02:46:04;2.70;;;1.30;;
62696;SDS011;48761;42.680;23.312;2022-12-11T02:48:32;3.00;;;1.80;;
62696;SDS011;48761;42.680;23.312;2022-12-11T02:51:00;5.03;;;2.20;;
62696;SDS011;48761;42.680;23.312;2022-12-11T02:53:29;4.15;;;2.40;;
62696;SDS011;48761;42.680;23.312;2022-12-11T02:56:15;3.70;;;1.90;;
62696;SDS011;48761;42.680;23.312;2022-12-11T02:58:47;4.43;;;2.50;;
62696;SDS011;48761;42.680;23.312;2022-12-11T03:01:16;6.28;;;1.70;;
62696;SDS011;48761;42.680;23.312;2022-12-11T03:03:42;3.72;;;2.00;;
62696;SDS011;48761;42.680;23.312;2022-12-11T03:06:09;3.05;;;1.70;;
62696;SDS011;48761;42.680;23.312;2022-12-11T03:08:38;6.03;;;2.15;;
62696;SDS011;48761;42.680;23.312;2022-12-11T03:11:04;4.40;;;1.50;;
62696;SDS011;48761;42.680;23.312;2022-12-11T03:13:30;4.75;;;1.95;;
62696;SDS011;48761;42.680;23.312;2022-12-11T03:26:28;4.25;;;1.90;;
62696;SDS011;48761;42.680;23.312;2022-12-11T03:29:02;4.47;;;1.77;;
62696;SDS011;48761;42.680;23.312;2022-12-11T03:31:37;5.47;;;1.90;;
62696;SDS011;48761;42.680;23.312;2022-12-11T03:34:09;2.70;;;1.48;;
62696;SDS011;48761;42.680;23.312;2022-12-11T03:37:02;2.95;;;1.20;;
62696;SDS011;48761;42.680;23.312;2022-12-11T03:39:32;3.58;;;1.50;;
62696;SDS011;48761;42.680;23.312;2022-12-11T03:42:04;2.17;;;1.42;;
62696;SDS011;48761;42.680;23.312;2022-12-11T03:44:34;4.20;;;1.10;;
62696;SDS011;48761;42.680;23.312;2022-12-11T03:47:02;1.27;;;0.80;;
62696;SDS011;48761;42.680;23.312;2022-12-11T03:49:33;1.00;;;0.80;;
62696;SDS011;48761;42.680;23.312;2022-12-11T03:52:03;1.65;;;1.23;;
62696;SDS011;48761;42.680;23.312;2022-12-11T03:54:31;3.00;;;1.33;;
62696;SDS011;48761;42.680;23.312;2022-12-11T03:56:59;2.20;;;0.90;;
62696;SDS011;48761;42.680;23.312;2022-12-11T03:59:28;4.18;;;0.80;;
62696;SDS011;48761;42.680;23.312;2022-12-11T04:01:54;1.98;;;0.82;;
62696;SDS011;48761;42.680;23.312;2022-12-11T04:04:20;1.50;;;0.63;;
62696;SDS011;48761;42.680;23.312;2022-12-11T04:06:46;1.55;;;0.70;;
62696;SDS011;48761;42.680;23.312;2022-12-11T04:09:12;2.25;;;1.13;;
62696;SDS011;48761;42.680;23.312;2022-12-11T04:11:38;2.25;;;1.00;;
62696;SDS011;48761;42.680;23.312;2022-12-11T04:14:11;2.53;;;0.80;;
62696;SDS011;48761;42.680;23.312;2022-12-11T04:16:38;2.40;;;0.95;;
62696;SDS011;48761;42.680;23.312;2022-12-11T04:19:04;2.05;;;0.80;;
62696;SDS011;48761;42.680;23.312;2022-12-11T04:21:31;2.50;;;0.80;;
62696;SDS011;48761;42.680;23.312;2022-12-11T04:23:57;2.08;;;0.95;;
62696;SDS011;48761;42.680;23.312;2022-12-11T04:26:23;2.17;;;1.13;;
62696;SDS011;48761;42.680;23.312;2022-12-11T04:28:49;1.80;;;0.88;;
62696;SDS011;48761;42.680;23.312;2022-12-11T04:31:17;4.15;;;0.70;;
62696;SDS011;48761;42.680;23.312;2022-12-11T04:33:45;2.05;;;0.60;;
62696;SDS011;48761;42.680;23.312;2022-12-11T04:36:12;2.10;;;0.40;;
62696;SDS011;48761;42.680;23.312;2022-12-11T04:38:38;1.80;;;0.60;;
62696;SDS011;48761;42.680;23.312;2022-12-11T04:41:06;2.88;;;0.80;;
62696;SDS011;48761;42.680;23.312;2022-12-11T04:43:34;2.92;;;0.80;;
62696;SDS011;48761;42.680;23.312;2022-12-11T04:48:28;1.02;;;0.60;;
62696;SDS011;48761;42.680;23.312;2022-12-11T04:50:54;1.27;;;0.63;;
62696;SDS011;48761;42.680;23.312;2022-12-11T04:53:20;2.10;;;0.30;;
62696;SDS011;48761;42.680;23.312;2022-12-11T04:55:46;1.48;;;0.50;;
62696;SDS011;48761;42.680;23.312;2022-12-11T04:58:12;3.13;;;0.52;;
62696;SDS011;48761;42.680;23.312;2022-12-11T05:00:39;1.63;;;0.60;;
62696;SDS011;48761;42.680;23.312;2022-12-11T05:03:05;2.28;;;0.65;;
62696;SDS011;48761;42.680;23.312;2022-12-11T05:05:31;2.50;;;0.65;;
62696;SDS011;48761;42.680;23.312;2022-12-11T05:07:57;1.27;;;0.50;;
62696;SDS011;48761;42.680;23.312;2022-12-11T05:10:23;1.85;;;0.50;;
62696;SDS011;48761;42.680;23.312;2022-12-11T05:12:48;2.05;;;0.57;;
62696;SDS011;48761;42.680;23.312;2022-12-11T05:15:15;2.38;;;0.63;;
62696;SDS011;48761;42.680;23.312;2022-12-11T05:17:41;1.85;;;0.60;;
62696;SDS011;48761;42.680;23.312;2022-12-11T05:20:07;2.55;;;0.60;;
62696;SDS011;48761;42.680;23.312;2022-12-11T05:22:34;1.55;;;0.70;;
62696;SDS011;48761;42.680;23.312;2022-12-11T05:25:00;1.90;;;0.50;;
62696;SDS011;48761;42.680;23.312;2022-12-11T05:27:26;1.42;;;0.43;;
62696;SDS011;48761;42.680;23.312;2022-12-11T05:29:52;4.07;;;0.77;;
62696;SDS011;48761;42.680;23.312;2022-12-11T05:32:18;2.35;;;0.50;;
62696;SDS011;48761;42.680;23.312;2022-12-11T05:34:44;1.77;;;0.60;;
62696;SDS011;48761;42.680;23.312;2022-12-11T05:37:09;4.82;;;0.50;;
62696;SDS011;48761;42.680;23.312;2022-12-11T05:39:36;4.80;;;0.93;;
62696;SDS011;48761;42.680;23.312;2022-12-11T05:42:02;3.35;;;0.80;;
62696;SDS011;48761;42.680;23.312;2022-12-11T05:44:28;2.35;;;0.70;;
62696;SDS011;48761;42.680;23.312;2022-12-11T05:46:54;3.85;;;0.70;;
62696;SDS011;48761;42.680;23.312;2022-12-11T05:49:20;4.18;;;0.82;;
62696;SDS011;48761;42.680;23.312;2022-12-11T05:51:46;4.07;;;0.77;;
62696;SDS011;48761;42.680;23.312;2022-12-11T05:54:12;1.92;;;0.70;;
62696;SDS011;48761;42.680;23.312;2022-12-11T05:56:38;1.38;;;0.80;;
62696;SDS011;48761;42.680;23.312;2022-12-11T05:59:04;0.68;;;0.40;;
62696;SDS011;48761;42.680;23.312;2022-12-11T06:04:02;1.45;;;0.70;;
62696;SDS011;48761;42.680;23.312;2022-12-11T06:06:28;2.13;;;0.60;;
62696;SDS011;48761;42.680;23.312;2022-12-11T06:08:55;1.92;;;0.70;;
62696;SDS011;48761;42.680;23.312;2022-12-11T06:11:22;2.85;;;0.50;;
62696;SDS011;48761;42.680;23.312;2022-12-11T06:13:49;0.98;;;0.57;;
62696;SDS011;48761;42.680;23.312;2022-12-11T06:16:16;1.15;;;0.50;;
62696;SDS011;48761;42.680;23.312;2022-12-11T06:18:43;1.98;;;0.60;;
62696;SDS011;48761;42.680;23.312;2022-12-11T06:21:17;3.25;;;0.85;;
62696;SDS011;48761;42.680;23.312;2022-12-11T06:23:45;3.53;;;0.75;;
62696;SDS011;48761;42.680;23.312;2022-12-11T06:26:13;1.38;;;0.55;;
62696;SDS011;48761;42.680;23.312;2022-12-11T06:28:40;1.10;;;0.70;;
62696;SDS011;48761;42.680;23.312;2022-12-11T06:31:06;1.33;;;0.80;;
62696;SDS011;48761;42.680;23.312;2022-12-11T06:33:32;2.00;;;0.95;;
62696;SDS011;48761;42.680;23.312;2022-12-11T06:36:05;2.03;;;0.80;;
62696;SDS011;48761;42.680;23.312;2022-12-11T06:38:33;1.48;;;0.70;;
62696;SDS011;48761;42.680;23.312;2022-12-11T06:41:00;1.65;;;0.60;;
62696;SDS011;48761;42.680;23.312;2022-12-11T06:43:28;1.98;;;0.60;;
62696;SDS011;48761;42.680;23.312;2022-12-11T06:45:53;1.73;;;0.73;;
62696;SDS011;48761;42.680;23.312;2022-12-11T06:48:19;2.53;;;0.90;;
62696;SDS011;48761;42.680;23.312;2022-12-11T06:50:46;2.50;;;1.40;;
62696;SDS011;48761;42.680;23.312;2022-12-11T06:53:12;2.35;;;0.80;;
62696;SDS011;48761;42.680;23.312;2022-12-11T06:55:39;1.73;;;0.70;;
62696;SDS011;48761;42.680;23.312;2022-12-11T06:58:05;1.45;;;0.40;;
62696;SDS011;48761;42.680;23.312;2022-12-11T07:00:33;1.63;;;0.60;;
62696;SDS011;48761;42.680;23.312;2022-12-11T07:03:00;3.42;;;0.52;;
62696;SDS011;48761;42.680;23.312;2022-12-11T07:05:26;1.73;;;0.80;;
62696;SDS011;48761;42.680;23.312;2022-12-11T07:07:54;1.25;;;0.50;;
62696;SDS011;48761;42.680;23.312;2022-12-11T07:10:21;2.63;;;0.75;;
62696;SDS011;48761;42.680;23.312;2022-12-11T07:12:47;1.23;;;0.75;;
62696;SDS011;48761;42.680;23.312;2022-12-11T07:15:13;1.63;;;0.60;;
62696;SDS011;48761;42.680;23.312;2022-12-11T07:17:39;2.15;;;0.80;;
62696;SDS011;48761;42.680;23.312;2022-12-11T07:20:05;3.80;;;0.85;;
62696;SDS011;48761;42.680;23.312;2022-12-11T07:22:32;1.65;;;1.00;;
62696;SDS011;48761;42.680;23.312;2022-12-11T07:24:58;2.63;;;0.93;;
62696;SDS011;48761;42.680;23.312;2022-12-11T07:27:24;3.60;;;0.82;;
62696;SDS011;48761;42.680;23.312;2022-12-11T07:29:50;2.65;;;0.82;;
62696;SDS011;48761;42.680;23.312;2022-12-11T07:32:16;2.55;;;0.90;;
62696;SDS011;48761;42.680;23.312;2022-12-11T07:34:42;3.38;;;1.02;;
62696;SDS011;48761;42.680;23.312;2022-12-11T07:37:08;2.25;;;1.30;;
62696;SDS011;48761;42.680;23.312;2022-12-11T07:39:34;2.30;;;0.70;;
62696;SDS011;48761;42.680;23.312;2022-12-11T07:42:00;2.40;;;0.80;;
62696;SDS011;48761;42.680;23.312;2022-12-11T07:44:26;5.32;;;1.00;;
62696;SDS011;48761;42.680;23.312;2022-12-11T07:46:52;3.42;;;0.95;;
62696;SDS011;48761;42.680;23.312;2022-12-11T07:49:18;1.80;;;0.88;;
62696;SDS011;48761;42.680;23.312;2022-12-11T07:51:44;1.42;;;0.52;;
62696;SDS011;48761;42.680;23.312;2022-12-11T07:54:10;1.02;;;0.60;;
62696;SDS011;48761;42.680;23.312;2022-12-11T07:56:37;0.95;;;0.50;;
62696;SDS011;48761;42.680;23.312;2022-12-11T07:59:03;2.97;;;0.77;;
62696;SDS011;48761;42.680;23.312;2022-12-11T08:01:31;2.25;;;0.60;;
62696;SDS011;48761;42.680;23.312;2022-12-11T08:03:58;2.50;;;0.60;;
62696;SDS011;48761;42.680;23.312;2022-12-11T08:06:25;1.23;;;0.70;;
62696;SDS011;48761;42.680;23.312;2022-12-11T08:08:54;1.77;;;0.70;;
62696;SDS011;48761;42.680;23.312;2022-12-11T08:11:20;1.10;;;0.70;;
62696;SDS011;48761;42.680;23.312;2022-12-11T08:13:47;3.40;;;0.88;;
62696;SDS011;48761;42.680;23.312;2022-12-11T08:16:13;3.00;;;0.60;;
62696;SDS011;48761;42.680;23.312;2022-12-11T08:18:40;4.00;;;0.82;;
62696;SDS011;48761;42.680;23.312;2022-12-11T08:21:12;1.25;;;0.80;;
62696;SDS011;48761;42.680;23.312;2022-12-11T08:23:38;1.27;;;0.77;;
62696;SDS011;48761;42.680;23.312;2022-12-11T08:26:06;2.45;;;1.23;;
62696;SDS011;48761;42.680;23.312;2022-12-11T08:28:33;1.83;;;0.80;;
62696;SDS011;48761;42.680;23.312;2022-12-11T08:31:02;2.17;;;0.80;;
62696;SDS011;48761;42.680;23.312;2022-12-11T08:33:29;2.17;;;0.80;;
62696;SDS011;48761;42.680;23.312;2022-12-11T08:35:54;1.98;;;0.70;;
62696;SDS011;48761;42.680;23.312;2022-12-11T08:38:20;3.63;;;1.00;;
62696;SDS011;48761;42.680;23.312;2022-12-11T08:40:46;4.00;;;0.90;;
62696;SDS011;48761;42.680;23.312;2022-12-11T08:43:12;2.40;;;0.82;;
62696;SDS011;48761;42.680;23.312;2022-12-11T08:45:38;1.80;;;0.60;;
62696;SDS011;48761;42.680;23.312;2022-12-11T08:48:04;1.83;;;0.90;;
62696;SDS011;48761;42.680;23.312;2022-12-11T08:50:30;2.42;;;1.20;;
62696;SDS011;48761;42.680;23.312;2022-12-11T08:52:56;3.67;;;1.48;;
62696;SDS011;48761;42.680;23.312;2022-12-11T08:55:22;2.10;;;1.10;;
62696;SDS011;48761;42.680;23.312;2022-12-11T08:57:49;4.97;;;1.20;;
62696;SDS011;48761;42.680;23.312;2022-12-11T09:00:15;3.88;;;1.50;;
62696;SDS011;48761;42.680;23.312;2022-12-11T09:02:41;6.85;;;1.80;;
62696;SDS011;48761;42.680;23.312;2022-12-11T09:05:07;4.68;;;1.80;;
62696;SDS011;48761;42.680;23.312;2022-12-11T09:07:34;3.97;;;2.17;;
62696;SDS011;48761;42.680;23.312;2022-12-11T09:10:01;4.10;;;1.77;;
62696;SDS011;48761;42.680;23.312;2022-12-11T09:12:28;3.72;;;1.77;;
62696;SDS011;48761;42.680;23.312;2022-12-11T09:14:54;3.28;;;1.25;;
62696;SDS011;48761;42.680;23.312;2022-12-11T09:17:20;2.58;;;1.60;;
62696;SDS011;48761;42.680;23.312;2022-12-11T09:19:46;3.28;;;1.40;;
62696;SDS011;48761;42.680;23.312;2022-12-11T09:22:12;4.00;;;1.35;;
62696;SDS011;48761;42.680;23.312;2022-12-11T09:24:38;2.85;;;1.20;;
62696;SDS011;48761;42.680;23.312;2022-12-11T09:27:04;2.90;;;0.93;;
62696;SDS011;48761;42.680;23.312;2022-12-11T09:29:30;2.25;;;1.27;;
62696;SDS011;48761;42.680;23.312;2022-12-11T09:31:57;4.10;;;1.10;;
62696;SDS011;48761;42.680;23.312;2022-12-11T09:34:23;2.00;;;1.00;;
62696;SDS011;48761;42.680;23.312;2022-12-11T09:36:49;3.05;;;1.08;;
62696;SDS011;48761;42.680;23.312;2022-12-11T09:39:15;2.42;;;1.10;;
62696;SDS011;48761;42.680;23.312;2022-12-11T09:44:30;1.95;;;0.77;;
62696;SDS011;48761;42.680;23.312;2022-12-11T09:55:18;2.60;;;0.80;;
62696;SDS011;48761;42.680;23.312;2022-12-11T10:00:46;1.52;;;0.75;;
62696;SDS011;48761;42.680;23.312;2022-12-11T10:03:33;4.30;;;1.70;;
62696;SDS011;48761;42.680;23.312;2022-12-11T10:11:39;2.63;;;1.13;;
62696;SDS011;48761;42.680;23.312;2022-12-11T10:16:50;2.30;;;0.77;;
62696;SDS011;48761;42.680;23.312;2022-12-11T10:19:23;4.40;;;1.25;;
62696;SDS011;48761;42.680;23.312;2022-12-11T10:21:52;2.17;;;0.98;;
62696;SDS011;48761;42.680;23.312;2022-12-11T10:24:55;1.88;;;1.00;;
62696;SDS011;48761;42.680;23.312;2022-12-11T10:27:19;1.75;;;1.00;;
62696;SDS011;48761;42.680;23.312;2022-12-11T10:29:47;2.00;;;0.88;;
62696;SDS011;48761;42.680;23.312;2022-12-11T10:32:26;5.85;;;1.23;;
62696;SDS011;48761;42.680;23.312;2022-12-11T10:35:00;4.88;;;1.40;;
62696;SDS011;48761;42.680;23.312;2022-12-11T10:37:29;2.63;;;1.63;;
62696;SDS011;48761;42.680;23.312;2022-12-11T10:39:55;2.55;;;1.70;;
62696;SDS011;48761;42.680;23.312;2022-12-11T10:42:21;4.60;;;1.75;;
62696;SDS011;48761;42.680;23.312;2022-12-11T10:44:59;1.58;;;0.90;;
62696;SDS011;48761;42.680;23.312;2022-12-11T10:47:26;1.02;;;0.90;;
62696;SDS011;48761;42.680;23.312;2022-12-11T10:49:57;1.95;;;1.00;;
62696;SDS011;48761;42.680;23.312;2022-12-11T10:52:26;1.45;;;1.02;;
62696;SDS011;48761;42.680;23.312;2022-12-11T10:57:31;1.95;;;1.10;;
62696;SDS011;48761;42.680;23.312;2022-12-11T11:00:00;3.15;;;1.08;;
62696;SDS011;48761;42.680;23.312;2022-12-11T11:02:28;3.70;;;1.00;;
62696;SDS011;48761;42.680;23.312;2022-12-11T11:04:58;1.63;;;1.15;;
62696;SDS011;48761;42.680;23.312;2022-12-11T11:07:29;1.23;;;0.80;;
62696;SDS011;48761;42.680;23.312;2022-12-11T11:10:29;5.07;;;1.08;;
62696;SDS011;48761;42.680;23.312;2022-12-11T11:12:48;2.47;;;1.10;;
62696;SDS011;48761;42.680;23.312;2022-12-11T11:15:17;1.98;;;1.10;;
62696;SDS011;48761;42.680;23.312;2022-12-11T11:20:17;1.25;;;0.90;;
62696;SDS011;48761;42.680;23.312;2022-12-11T11:22:46;3.28;;;1.30;;
62696;SDS011;48761;42.680;23.312;2022-12-11T11:25:16;1.25;;;1.10;;
62696;SDS011;48761;42.680;23.312;2022-12-11T11:27:46;3.45;;;1.60;;
62696;SDS011;48761;42.680;23.312;2022-12-11T11:30:20;4.23;;;1.50;;
62696;SDS011;48761;42.680;23.312;2022-12-11T11:32:49;5.82;;;1.60;;
62696;SDS011;48761;42.680;23.312;2022-12-11T11:35:20;2.80;;;1.00;;
62696;SDS011;48761;42.680;23.312;2022-12-11T11:43:43;1.45;;;1.20;;
62696;SDS011;48761;42.680;23.312;2022-12-11T11:54:36;2.15;;;1.10;;
62696;SDS011;48761;42.680;23.312;2022-12-11T11:57:15;1.65;;;1.00;;
62696;SDS011;48761;42.680;23.312;2022-12-11T11:59:51;2.33;;;1.70;;
62696;SDS011;48761;42.680;23.312;2022-12-11T12:02:20;2.05;;;1.30;;
62696;SDS011;48761;42.680;23.312;2022-12-11T12:04:46;2.30;;;1.38;;
62696;SDS011;48761;42.680;23.312;2022-12-11T12:12:54;2.88;;;1.55;;
62696;SDS011;48761;42.680;23.312;2022-12-11T12:21:24;4.55;;;2.05;;
62696;SDS011;48761;42.680;23.312;2022-12-11T12:24:04;5.18;;;2.35;;
62696;SDS011;48761;42.680;23.312;2022-12-11T12:26:33;4.65;;;2.33;;
62696;SDS011;48761;42.680;23.312;2022-12-11T12:47:44;3.40;;;1.80;;
62696;SDS011;48761;42.680;23.312;2022-12-11T12:50:14;2.40;;;1.67;;
62696;SDS011;48761;42.680;23.312;2022-12-11T12:52:42;2.58;;;1.35;;
62696;SDS011;48761;42.680;23.312;2022-12-11T12:57:45;2.13;;;1.42;;
62696;SDS011;48761;42.680;23.312;2022-12-11T13:00:12;2.47;;;1.70;;
62696;SDS011;48761;42.680;23.312;2022-12-11T13:02:54;2.70;;;1.52;;
62696;SDS011;48761;42.680;23.312;2022-12-11T13:05:24;1.67;;;1.08;;
62696;SDS011;48761;42.680;23.312;2022-12-11T13:07:53;2.33;;;1.27;;
62696;SDS011;48761;42.680;23.312;2022-12-11T13:12:49;42.92;;;27.30;;
62696;SDS011;48761;42.680;23.312;2022-12-11T13:18:01;3.95;;;1.65;;
62696;SDS011;48761;42.680;23.312;2022-12-11T13:20:32;3.55;;;2.22;;
62696;SDS011;48761;42.680;23.312;2022-12-11T13:25:28;4.28;;;1.63;;
62696;SDS011;48761;42.680;23.312;2022-12-11T13:28:06;3.15;;;1.52;;
62696;SDS011;48761;42.680;23.312;2022-12-11T13:30:44;3.40;;;1.48;;
62696;SDS011;48761;42.680;23.312;2022-12-11T13:33:22;1.65;;;1.20;;
62696;SDS011;48761;42.680;23.312;2022-12-11T13:36:00;2.13;;;1.30;;
62696;SDS011;48761;42.680;23.312;2022-12-11T13:38:56;2.35;;;1.50;;
62696;SDS011;48761;42.680;23.312;2022-12-11T13:41:26;2.90;;;1.45;;
62696;SDS011;48761;42.680;23.312;2022-12-11T13:43:53;2.88;;;2.05;;
62696;SDS011;48761;42.680;23.312;2022-12-11T13:46:23;4.32;;;2.20;;
62696;SDS011;48761;42.680;23.312;2022-12-11T13:51:19;2.88;;;1.58;;
62696;SDS011;48761;42.680;23.312;2022-12-11T13:53:47;2.50;;;1.40;;
62696;SDS011;48761;42.680;23.312;2022-12-11T13:56:17;3.15;;;1.65;;
62696;SDS011;48761;42.680;23.312;2022-12-11T13:58:45;2.33;;;1.55;;
62696;SDS011;48761;42.680;23.312;2022-12-11T14:01:13;3.33;;;1.85;;
62696;SDS011;48761;42.680;23.312;2022-12-11T14:06:36;3.35;;;2.00;;
62696;SDS011;48761;42.680;23.312;2022-12-11T14:09:03;5.38;;;2.63;;
62696;SDS011;48761;42.680;23.312;2022-12-11T14:14:07;140.50;;;87.00;;
62696;SDS011;48761;42.680;23.312;2022-12-11T14:16:46;71.47;;;41.72;;
62696;SDS011;48761;42.680;23.312;2022-12-11T14:19:14;60.15;;;35.80;;
62696;SDS011;48761;42.680;23.312;2022-12-11T14:21:53;54.38;;;32.90;;
62696;SDS011;48761;42.680;23.312;2022-12-11T14:24:27;10.07;;;4.95;;
62696;SDS011;48761;42.680;23.312;2022-12-11T14:26:53;13.48;;;7.90;;
62696;SDS011;48761;42.680;23.312;2022-12-11T14:29:27;13.57;;;8.35;;
62696;SDS011;48761;42.680;23.312;2022-12-11T14:31:55;5.47;;;4.00;;
62696;SDS011;48761;42.680;23.312;2022-12-11T14:34:30;7.13;;;4.30;;
62696;SDS011;48761;42.680;23.312;2022-12-11T14:36:59;5.35;;;2.65;;
62696;SDS011;48761;42.680;23.312;2022-12-11T14:40:15;4.05;;;2.47;;
62696;SDS011;48761;42.680;23.312;2022-12-11T14:42:16;3.55;;;2.08;;
62696;SDS011;48761;42.680;23.312;2022-12-11T14:44:46;3.40;;;2.53;;
62696;SDS011;48761;42.680;23.312;2022-12-11T14:47:29;3.90;;;2.55;;
62696;SDS011;48761;42.680;23.312;2022-12-11T14:50:07;4.35;;;2.13;;
62696;SDS011;48761;42.680;23.312;2022-12-11T14:52:41;3.72;;;2.20;;
62696;SDS011;48761;42.680;23.312;2022-12-11T14:57:47;4.93;;;1.50;;
62696;SDS011;48761;42.680;23.312;2022-12-11T15:02:56;5.13;;;2.10;;
62696;SDS011;48761;42.680;23.312;2022-12-11T15:05:22;4.88;;;2.97;;
62696;SDS011;48761;42.680;23.312;2022-12-11T15:08:33;3.67;;;1.90;;
62696;SDS011;48761;42.680;23.312;2022-12-11T15:10:59;2.58;;;1.73;;
62696;SDS011;48761;42.680;23.312;2022-12-11T15:13:28;3.88;;;2.25;;
62696;SDS011;48761;42.680;23.312;2022-12-11T15:15:54;4.05;;;2.63;;
62696;SDS011;48761;42.680;23.312;2022-12-11T15:20:52;2.80;;;1.73;;
62696;SDS011;48761;42.680;23.312;2022-12-11T15:23:20;2.30;;;1.15;;
62696;SDS011;48761;42.680;23.312;2022-12-11T15:25:50;2.42;;;1.50;;
62696;SDS011;48761;42.680;23.312;2022-12-11T15:28:25;3.17;;;1.48;;
62696;SDS011;48761;42.680;23.312;2022-12-11T15:31:03;2.38;;;1.17;;
62696;SDS011;48761;42.680;23.312;2022-12-11T15:33:31;3.33;;;1.70;;
62696;SDS011;48761;42.680;23.312;2022-12-11T15:36:01;3.75;;;1.60;;
62696;SDS011;48761;42.680;23.312;2022-12-11T15:40:58;2.53;;;1.52;;
62696;SDS011;48761;42.680;23.312;2022-12-11T15:43:24;4.18;;;1.63;;
62696;SDS011;48761;42.680;23.312;2022-12-11T15:45:51;3.40;;;1.80;;
62696;SDS011;48761;42.680;23.312;2022-12-11T15:48:17;3.47;;;2.13;;
62696;SDS011;48761;42.680;23.312;2022-12-11T15:50:42;4.57;;;2.55;;
62696;SDS011;48761;42.680;23.312;2022-12-11T15:53:08;5.50;;;2.83;;
62696;SDS011;48761;42.680;23.312;2022-12-11T15:55:34;3.92;;;2.08;;
62696;SDS011;48761;42.680;23.312;2022-12-11T15:58:06;3.17;;;2.20;;
62696;SDS011;48761;42.680;23.312;2022-12-11T16:00:37;3.00;;;1.98;;
62696;SDS011;48761;42.680;23.312;2022-12-11T16:03:03;3.85;;;2.38;;
62696;SDS011;48761;42.680;23.312;2022-12-11T16:05:30;2.53;;;1.90;;
62696;SDS011;48761;42.680;23.312;2022-12-11T16:07:57;3.33;;;2.00;;
62696;SDS011;48761;42.680;23.312;2022-12-11T16:10:23;2.65;;;1.77;;
62696;SDS011;48761;42.680;23.312;2022-12-11T16:12:50;2.80;;;1.35;;
62696;SDS011;48761;42.680;23.312;2022-12-11T16:15:16;1.70;;;1.27;;
62696;SDS011;48761;42.680;23.312;2022-12-11T16:17:42;2.63;;;1.60;;
62696;SDS011;48761;42.680;23.312;2022-12-11T16:20:09;2.15;;;1.70;;
62696;SDS011;48761;42.680;23.312;2022-12-11T16:22:36;2.97;;;1.75;;
62696;SDS011;48761;42.680;23.312;2022-12-11T16:25:02;3.05;;;1.75;;
62696;SDS011;48761;42.680;23.312;2022-12-11T16:27:29;2.70;;;2.08;;
62696;SDS011;48761;42.680;23.312;2022-12-11T16:29:55;2.80;;;1.85;;
62696;SDS011;48761;42.680;23.312;2022-12-11T16:32:21;3.42;;;2.00;;
62696;SDS011;48761;42.680;23.312;2022-12-11T16:34:48;4.10;;;2.25;;
62696;SDS011;48761;42.680;23.312;2022-12-11T16:37:13;2.30;;;1.90;;
62696;SDS011;48761;42.680;23.312;2022-12-11T16:39:39;2.30;;;1.50;;
62696;SDS011;48761;42.680;23.312;2022-12-11T16:42:05;2.58;;;1.60;;
62696;SDS011;48761;42.680;23.312;2022-12-11T16:44:31;2.05;;;1.60;;
62696;SDS011;48761;42.680;23.312;2022-12-11T16:46:58;2.83;;;1.73;;